Time;durP1;ratioP1;P1;durP2;ratioP2;P2;SDS_P1;SDS_P2;PMS_P1;PMS_P2;Temp;Humidity;BMP_temperature;BMP_pressure;BME280_temperature;BME280_humidity;BME280_pressure;Samples;Min_cycle;Max_cycle;Signal;HPM_P1;HPM_P2
2023/06/30 00:02:14;;;;;;;9.52;3.50;;;17.20;99.90;;;;;;5053230;28;20033;-59
2023/06/30 00:04:40;;;;;;;7.60;3.40;;;17.10;99.90;;;;;;5051470;28;20171;-59
2023/06/30 00:07:05;;;;;;;9.00;2.92;;;17.20;99.90;;;;;;5053836;28;20037;-59
2023/06/30 00:09:33;;;;;;;7.88;3.35;;;17.10;99.90;;;;;;5052965;28;20029;-59
2023/06/30 00:11:59;;;;;;;7.57;3.10;;;17.10;99.90;;;;;;5063908;28;20525;-59
2023/06/30 00:14:25;;;;;;;12.30;3.38;;;17.10;99.90;;;;;;5061779;28;20045;-59
2023/06/30 00:16:50;;;;;;;9.48;3.65;;;17.00;99.90;;;;;;5053837;28;20072;-59
2023/06/30 00:19:17;;;;;;;7.65;3.25;;;17.00;99.90;;;;;;5053242;28;20036;-59
2023/06/30 00:21:44;;;;;;;10.05;3.53;;;17.00;99.90;;;;;;5060378;28;20033;-59
2023/06/30 00:24:13;;;;;;;11.57;3.72;;;17.00;99.90;;;;;;5062797;28;20037;-59
2023/06/30 00:26:39;;;;;;;8.98;3.35;;;17.00;99.90;;;;;;5065671;28;20063;-59
2023/06/30 00:29:06;;;;;;;10.63;3.70;;;17.00;99.90;;;;;;5063153;28;20044;-59
2023/06/30 00:31:32;;;;;;;11.32;3.80;;;16.90;99.90;;;;;;5054423;28;20041;-59
2023/06/30 00:34:00;;;;;;;9.68;3.78;;;16.80;99.90;;;;;;5053263;28;20041;-59
2023/06/30 00:36:31;;;;;;;9.20;3.55;;;16.80;99.90;;;;;;5044290;28;20041;-60
2023/06/30 00:38:58;;;;;;;10.88;3.50;;;16.70;99.90;;;;;;5037086;28;20043;-58
2023/06/30 00:41:23;;;;;;;7.90;3.45;;;16.80;99.90;;;;;;5064970;28;20482;-59
2023/06/30 00:43:49;;;;;;;9.98;3.38;;;16.70;99.90;;;;;;5073177;28;20032;-59
2023/06/30 00:46:16;;;;;;;10.60;3.05;;;16.70;99.90;;;;;;5052756;28;20033;-59
2023/06/30 00:48:44;;;;;;;9.90;3.38;;;16.70;99.90;;;;;;5048037;28;20099;-59
2023/06/30 00:51:15;;;;;;;8.93;3.17;;;16.60;99.90;;;;;;5048045;28;20478;-59
2023/06/30 00:53:40;;;;;;;;;;;16.70;99.90;;;;;;5051101;28;20037;-59
2023/06/30 00:56:06;;;;;;;8.80;3.15;;;16.60;99.90;;;;;;5050953;28;19924;-60
2023/06/30 00:58:32;;;;;;;8.40;3.00;;;16.50;99.90;;;;;;5051486;28;20029;-59
2023/06/30 01:01:10;;;;;;;11.23;3.50;;;16.50;99.90;;;;;;5061436;28;20538;-59
2023/06/30 01:03:40;;;;;;;10.90;3.75;;;16.50;99.90;;;;;;5051617;28;20547;-59
2023/06/30 01:06:42;;;;;;;12.15;3.85;;;16.40;99.90;;;;;;5051135;28;20037;-59
2023/06/30 01:09:19;;;;;;;10.60;3.25;;;16.40;99.90;;;;;;5054451;28;20124;-59
2023/06/30 01:11:46;;;;;;;7.55;3.13;;;16.40;99.90;;;;;;5056020;28;20155;-59
2023/06/30 01:14:16;;;;;;;12.02;3.70;;;16.40;99.90;;;;;;5063854;28;20090;-59
2023/06/30 01:16:43;;;;;;;10.15;3.65;;;16.30;99.90;;;;;;5063505;28;20383;-59
2023/06/30 01:19:24;;;;;;;7.63;3.40;;;16.30;99.90;;;;;;5063936;28;20120;-59
2023/06/30 01:21:50;;;;;;;;;;;16.20;99.90;;;;;;5041611;28;20038;-59
2023/06/30 01:24:22;;;;;;;11.25;3.28;;;16.10;99.90;;;;;;5042925;28;19924;-59
2023/06/30 01:26:49;;;;;;;7.60;2.97;;;16.00;99.90;;;;;;5046269;28;20045;-59
2023/06/30 01:29:16;;;;;;;5.80;3.20;;;16.00;99.90;;;;;;5050204;28;20060;-59
2023/06/30 01:31:43;;;;;;;6.70;3.20;;;16.00;99.90;;;;;;5049305;28;20376;-59
2023/06/30 01:34:10;;;;;;;9.30;3.00;;;16.00;99.90;;;;;;5050388;28;20053;-59
2023/06/30 01:36:36;;;;;;;7.72;3.42;;;16.00;99.90;;;;;;5050478;28;20036;-59
2023/06/30 01:39:02;;;;;;;7.47;3.28;;;15.90;99.90;;;;;;5050745;28;20048;-59
2023/06/30 01:41:28;;;;;;;11.00;3.63;;;15.90;99.90;;;;;;5046437;28;20037;-59
2023/06/30 01:43:54;;;;;;;8.75;3.60;;;15.90;99.90;;;;;;5046014;28;20036;-59
2023/06/30 01:46:20;;;;;;;6.65;3.30;;;15.80;99.90;;;;;;5049314;28;20996;-59
2023/06/30 01:48:46;;;;;;;9.32;3.80;;;15.70;99.90;;;;;;5048519;28;20039;-59
2023/06/30 01:51:13;;;;;;;12.48;3.40;;;15.60;99.90;;;;;;5050369;28;20040;-59
2023/06/30 01:53:39;;;;;;;8.52;3.05;;;15.60;99.90;;;;;;5046795;28;20127;-59
2023/06/30 01:56:05;;;;;;;8.23;3.15;;;15.50;99.90;;;;;;5048007;28;20123;-59
2023/06/30 01:58:33;;;;;;;12.57;3.17;;;15.40;99.90;;;;;;5056844;28;20032;-59
2023/06/30 02:00:59;;;;;;;11.02;3.42;;;15.40;99.90;;;;;;5053987;28;20486;-59
2023/06/30 02:03:26;;;;;;;11.63;3.28;;;15.40;99.90;;;;;;5050735;28;20035;-59
2023/06/30 02:05:52;;;;;;;9.73;3.55;;;15.50;99.90;;;;;;5047615;28;20043;-59
2023/06/30 02:08:20;;;;;;;10.05;3.50;;;15.50;99.90;;;;;;5055856;28;20044;-59
2023/06/30 02:10:46;;;;;;;7.72;3.25;;;15.50;99.90;;;;;;5051131;28;20036;-59
2023/06/30 02:13:11;;;;;;;6.75;3.10;;;15.40;99.90;;;;;;5063126;28;20401;-59
2023/06/30 02:15:37;;;;;;;10.25;3.10;;;15.30;99.90;;;;;;5058491;28;20078;-59
2023/06/30 02:18:03;;;;;;;7.75;3.30;;;15.30;99.90;;;;;;5063942;28;20089;-59
2023/06/30 02:20:28;;;;;;;9.27;3.40;;;15.20;99.90;;;;;;5047650;28;20037;-59
2023/06/30 02:22:54;;;;;;;7.95;2.90;;;15.20;99.90;;;;;;5047259;28;20039;-59
2023/06/30 02:25:22;;;;;;;9.68;3.38;;;15.10;99.90;;;;;;5043562;28;20069;-59
2023/06/30 02:27:48;;;;;;;8.68;3.30;;;15.10;99.90;;;;;;5048712;28;20406;-59
2023/06/30 02:30:14;;;;;;;7.15;3.00;;;15.00;99.90;;;;;;5049329;28;20051;-59
2023/06/30 02:32:40;;;;;;;9.65;3.78;;;15.10;99.90;;;;;;5042093;28;20037;-59
2023/06/30 02:35:07;;;;;;;5.65;2.83;;;14.90;99.90;;;;;;5049432;28;20037;-59
2023/06/30 02:37:38;;;;;;;7.22;3.60;;;14.90;99.90;;;;;;5046930;28;20037;-59
2023/06/30 02:40:08;;;;;;;6.80;3.55;;;14.90;99.90;;;;;;5039825;28;20065;-59
2023/06/30 02:42:34;;;;;;;8.70;3.33;;;14.80;99.90;;;;;;5047633;28;20033;-59
2023/06/30 02:45:00;;;;;;;5.45;3.15;;;14.80;99.90;;;;;;5049477;28;20040;-59
2023/06/30 02:47:25;;;;;;;8.30;3.20;;;14.80;99.90;;;;;;5050720;28;20040;-59
2023/06/30 02:49:58;;;;;;;8.43;3.00;;;14.70;99.90;;;;;;5040977;28;20021;-59
2023/06/30 02:52:24;;;;;;;6.95;2.90;;;14.80;99.90;;;;;;5041719;28;20439;-59
2023/06/30 02:54:49;;;;;;;7.43;3.38;;;14.70;99.90;;;;;;5046370;28;20060;-59
2023/06/30 02:57:15;;;;;;;5.57;2.95;;;14.60;99.90;;;;;;5063146;28;20021;-59
2023/06/30 02:59:41;;;;;;;7.13;3.00;;;14.60;99.90;;;;;;5052586;28;20495;-59
2023/06/30 03:02:06;;;;;;;8.90;3.33;;;14.50;99.90;;;;;;5051944;28;20041;-59
2023/06/30 03:04:32;;;;;;;7.72;3.08;;;14.50;99.90;;;;;;5054489;28;20024;-59
2023/06/30 03:06:57;;;;;;;5.93;2.70;;;14.40;99.90;;;;;;5051380;28;20091;-59
2023/06/30 03:09:23;;;;;;;6.18;2.63;;;14.40;99.90;;;;;;5057848;28;20053;-59
2023/06/30 03:11:51;;;;;;;7.63;2.90;;;14.30;99.90;;;;;;5057932;28;20029;-59
2023/06/30 03:14:17;;;;;;;6.35;3.05;;;14.20;99.90;;;;;;5063178;28;20623;-59
2023/06/30 03:16:42;;;;;;;4.45;2.70;;;14.20;99.90;;;;;;5051979;28;20065;-59
2023/06/30 03:19:10;;;;;;;5.75;3.03;;;14.20;99.90;;;;;;5053535;28;20040;-59
2023/06/30 03:21:38;;;;;;;7.72;3.03;;;14.10;99.90;;;;;;5057975;28;20033;-59
2023/06/30 03:24:05;;;;;;;10.18;3.40;;;14.10;99.90;;;;;;5051009;28;20045;-59
2023/06/30 03:26:31;;;;;;;5.28;2.97;;;14.10;99.90;;;;;;5056304;28;20449;-59
2023/06/30 03:28:57;;;;;;;7.03;2.97;;;14.00;99.90;;;;;;5063292;28;20038;-59
2023/06/30 03:31:23;;;;;;;7.43;3.10;;;14.00;99.90;;;;;;5064544;28;20531;-59
2023/06/30 03:33:49;;;;;;;6.60;2.83;;;14.00;99.90;;;;;;5052680;28;20068;-59
2023/06/30 03:36:14;;;;;;;5.25;2.90;;;14.00;99.90;;;;;;5053606;28;20065;-59
2023/06/30 03:38:40;;;;;;;7.35;2.75;;;14.00;99.90;;;;;;5053534;28;20124;-59
2023/06/30 03:41:08;;;;;;;7.28;2.83;;;14.00;99.90;;;;;;5054050;28;20067;-59
2023/06/30 03:43:34;;;;;;;7.55;2.90;;;13.90;99.90;;;;;;5066240;28;20029;-59
2023/06/30 03:45:59;;;;;;;5.43;2.70;;;13.90;99.90;;;;;;5066659;28;20482;-59
2023/06/30 03:48:25;;;;;;;6.18;2.80;;;13.90;99.90;;;;;;5057824;28;20551;-59
2023/06/30 03:50:56;;;;;;;7.63;2.92;;;13.90;99.90;;;;;;5048531;28;20033;-59
2023/06/30 03:53:23;;;;;;;7.72;3.05;;;13.90;99.90;;;;;;5058948;28;20033;-59
2023/06/30 03:55:48;;;;;;;5.22;2.58;;;13.90;99.90;;;;;;5045588;28;20038;-59
2023/06/30 03:58:14;;;;;;;8.02;3.28;;;13.80;99.90;;;;;;5053774;28;20048;-59
2023/06/30 04:00:39;;;;;;;5.20;2.88;;;13.80;99.90;;;;;;5053081;28;20061;-59
2023/06/30 04:03:05;;;;;;;6.07;2.80;;;13.80;99.90;;;;;;5064930;28;20036;-59
2023/06/30 04:05:31;;;;;;;6.57;2.78;;;13.80;99.90;;;;;;5061526;28;20036;-59
2023/06/30 04:07:59;;;;;;;4.13;2.60;;;13.90;99.90;;;;;;5048972;28;20048;-59
2023/06/30 04:10:24;;;;;;;8.95;2.78;;;13.80;99.90;;;;;;5049884;28;20119;-59
2023/06/30 04:12:50;;;;;;;8.55;3.00;;;13.80;99.90;;;;;;5048314;28;20160;-59
2023/06/30 04:15:15;;;;;;;6.65;2.90;;;13.90;99.90;;;;;;5049020;28;20041;-59
2023/06/30 04:17:41;;;;;;;4.72;2.75;;;13.90;99.90;;;;;;5048000;28;20098;-59
2023/06/30 04:20:10;;;;;;;5.68;2.83;;;14.00;99.90;;;;;;5050671;28;20152;-59
2023/06/30 04:22:37;;;;;;;6.32;3.10;;;14.00;99.90;;;;;;5049675;28;20035;-59
2023/06/30 04:25:06;;;;;;;6.97;3.15;;;13.90;99.90;;;;;;5048911;28;20072;-59
2023/06/30 04:27:34;;;;;;;7.38;3.20;;;14.00;99.90;;;;;;5046186;28;20029;-59
2023/06/30 04:30:00;;;;;;;9.98;3.30;;;14.00;99.90;;;;;;5050357;28;20052;-59
2023/06/30 04:32:25;;;;;;;7.18;3.28;;;13.90;99.90;;;;;;5053033;28;20399;-59
2023/06/30 04:34:51;;;;;;;5.45;3.05;;;13.90;99.90;;;;;;5053637;28;20111;-59
2023/06/30 04:37:16;;;;;;;8.90;3.42;;;13.90;99.90;;;;;;5053172;28;20047;-59
2023/06/30 04:39:47;;;;;;;6.28;2.95;;;13.90;99.90;;;;;;5044243;28;20045;-58
2023/06/30 04:42:14;;;;;;;9.65;3.00;;;13.90;99.90;;;;;;5079499;22;20405;-64
2023/06/30 04:44:40;;;;;;;5.95;2.80;;;13.90;99.90;;;;;;5067298;28;20397;-64
2023/06/30 04:47:06;;;;;;;7.80;2.72;;;13.90;99.90;;;;;;5059564;28;20116;-64
2023/06/30 04:49:34;;;;;;;6.93;3.28;;;13.90;99.90;;;;;;5064020;28;20040;-64
2023/06/30 04:52:00;;;;;;;9.50;3.28;;;13.90;99.90;;;;;;5056329;28;20051;-64
2023/06/30 04:54:26;;;;;;;6.20;3.25;;;13.90;99.90;;;;;;5052393;28;20048;-64
2023/06/30 04:56:51;;;;;;;8.88;3.50;;;14.00;99.90;;;;;;5049915;28;20112;-64
2023/06/30 04:59:17;;;;;;;7.25;3.38;;;14.00;99.90;;;;;;5052915;28;20116;-64
2023/06/30 05:01:42;;;;;;;8.65;3.03;;;14.10;99.90;;;;;;5024803;28;20049;-64
2023/06/30 05:04:08;;;;;;;10.68;3.25;;;14.20;99.90;;;;;;5052947;28;20478;-64
2023/06/30 05:06:33;;;;;;;5.38;3.20;;;14.30;99.90;;;;;;5051064;28;20032;-64
2023/06/30 05:08:59;;;;;;;7.90;2.92;;;14.30;99.90;;;;;;5052258;28;20041;-65
2023/06/30 05:11:24;;;;;;;9.60;2.95;;;14.50;99.90;;;;;;5051579;28;20032;-64
2023/06/30 05:13:50;;;;;;;7.05;2.80;;;14.60;99.90;;;;;;5051233;28;20165;-64
2023/06/30 05:16:18;;;;;;;11.05;3.20;;;14.80;99.90;;;;;;5045791;28;20163;-71
2023/06/30 05:18:44;;;;;;;7.65;3.17;;;14.90;99.90;;;;;;5046403;28;20116;-71
2023/06/30 05:21:09;;;;;;;8.05;3.08;;;15.00;99.90;;;;;;5052321;28;20037;-71
2023/06/30 05:23:35;;;;;;;9.55;3.10;;;15.10;99.90;;;;;;5050970;28;20036;-71
2023/06/30 05:26:01;;;;;;;7.07;2.97;;;15.20;99.90;;;;;;5050532;28;20025;-71
2023/06/30 05:28:26;;;;;;;7.40;3.05;;;15.30;99.90;;;;;;5052498;28;20055;-71
2023/06/30 05:30:52;;;;;;;7.20;3.03;;;15.50;99.90;;;;;;5029640;28;20123;-71
2023/06/30 05:33:17;;;;;;;7.93;3.03;;;15.50;99.90;;;;;;5051079;28;20032;-71
2023/06/30 05:35:43;;;;;;;6.32;2.97;;;15.70;99.90;;;;;;5050730;28;20083;-71
2023/06/30 05:38:08;;;;;;;12.85;3.08;;;15.90;99.90;;;;;;5032837;28;20047;-71
2023/06/30 05:40:34;;;;;;;9.20;2.90;;;16.10;99.90;;;;;;5048273;28;20033;-71
2023/06/30 05:43:00;;;;;;;8.73;3.50;;;16.30;99.90;;;;;;5050435;28;20044;-71
2023/06/30 05:45:25;;;;;;;5.07;2.83;;;16.40;99.90;;;;;;5030103;28;20541;-71
2023/06/30 05:47:51;;;;;;;11.52;3.40;;;16.60;99.90;;;;;;5047909;28;20044;-71
2023/06/30 05:50:21;;;;;;;9.95;2.85;;;16.70;99.90;;;;;;5049628;28;20037;-71
2023/06/30 05:52:50;;;;;;;11.13;3.03;;;16.70;99.90;;;;;;5045282;28;20143;-71
2023/06/30 05:55:18;;;;;;;6.85;2.83;;;16.80;99.90;;;;;;5051233;28;20033;-71
2023/06/30 05:57:44;;;;;;;6.32;2.70;;;16.90;99.90;;;;;;5049712;28;20116;-71
2023/06/30 06:00:10;;;;;;;8.27;2.58;;;16.90;99.90;;;;;;5055618;28;20439;-71
2023/06/30 06:02:36;;;;;;;6.28;2.95;;;17.00;99.90;;;;;;5049890;28;20426;-71
2023/06/30 06:05:02;;;;;;;7.95;3.10;;;17.00;99.90;;;;;;5031093;28;20048;-71
2023/06/30 06:07:28;;;;;;;6.45;2.60;;;17.10;99.90;;;;;;5052395;28;20384;-71
2023/06/30 06:09:53;;;;;;;5.95;2.60;;;17.00;99.90;;;;;;5053480;28;20041;-71
2023/06/30 06:12:19;;;;;;;8.10;2.20;;;17.00;99.90;;;;;;5028913;28;20041;-71
2023/06/30 06:14:48;;;;;;;6.70;2.08;;;17.00;99.90;;;;;;5050527;28;20143;-71
2023/06/30 06:17:21;;;;;;;7.60;2.75;;;17.10;99.90;;;;;;5045152;28;20039;-71
2023/06/30 06:19:51;;;;;;;6.68;2.70;;;17.10;99.90;;;;;;5049985;28;20047;-71
2023/06/30 06:22:17;;;;;;;8.15;2.45;;;17.10;99.90;;;;;;5041636;28;20064;-71
2023/06/30 06:24:43;;;;;;;4.70;2.42;;;17.30;99.90;;;;;;5046035;28;20843;-71
2023/06/30 06:27:08;;;;;;;6.93;2.10;;;17.40;99.90;;;;;;5044651;28;20488;-71
2023/06/30 06:29:34;;;;;;;5.15;2.00;;;17.60;99.90;;;;;;5042846;28;20471;-72
2023/06/30 06:31:59;;;;;;;5.93;2.30;;;17.60;99.90;;;;;;5045415;28;20067;-71
2023/06/30 06:34:25;;;;;;;8.00;2.30;;;17.60;99.90;;;;;;5046407;28;20035;-71
2023/06/30 06:36:53;;;;;;;8.77;2.65;;;17.60;99.90;;;;;;5051156;28;20059;-71
2023/06/30 06:39:21;;;;;;;5.38;2.25;;;17.50;99.90;;;;;;5037941;28;20042;-71
2023/06/30 06:41:47;;;;;;;5.75;1.83;;;17.40;99.90;;;;;;5045187;28;20068;-71
2023/06/30 06:44:12;;;;;;;7.22;2.10;;;17.40;99.90;;;;;;5049234;28;20134;-71
2023/06/30 06:46:40;;;;;;;6.10;2.33;;;17.60;99.90;;;;;;5036144;28;20115;-71
2023/06/30 06:49:06;;;;;;;5.55;2.05;;;17.80;99.90;;;;;;5031352;28;20045;-71
2023/06/30 06:51:33;;;;;;;7.10;1.90;;;18.00;99.90;;;;;;5047748;28;20094;-71
2023/06/30 06:54:06;;;;;;;4.93;1.67;;;18.30;99.90;;;;;;5032563;28;20479;-71
2023/06/30 06:56:31;;;;;;;7.68;1.85;;;18.50;99.90;;;;;;5050786;28;20033;-71
2023/06/30 06:58:57;;;;;;;8.63;1.67;;;18.70;99.90;;;;;;5050721;28;20036;-71
2023/06/30 07:01:22;;;;;;;3.85;1.58;;;18.70;99.90;;;;;;5050883;28;20029;-71
2023/06/30 07:03:48;;;;;;;4.95;1.48;;;18.80;99.90;;;;;;5052538;28;20033;-71
2023/06/30 07:06:13;;;;;;;9.27;2.03;;;18.90;99.90;;;;;;5055286;28;20061;-71
2023/06/30 07:08:42;;;;;;;6.07;1.35;;;18.70;99.90;;;;;;5055510;28;20091;-71
2023/06/30 07:11:10;;;;;;;8.15;1.77;;;18.70;99.90;;;;;;5054542;28;20386;-71
2023/06/30 07:13:38;;;;;;;4.30;1.48;;;18.70;99.90;;;;;;5053391;28;20044;-71
2023/06/30 07:16:03;;;;;;;10.40;1.63;;;18.80;99.90;;;;;;5055199;28;20084;-71
2023/06/30 07:18:29;;;;;;;6.65;1.50;;;18.90;99.90;;;;;;5054905;28;20068;-71
2023/06/30 07:20:55;;;;;;;5.38;1.25;;;18.90;99.90;;;;;;5054991;28;20064;-71
2023/06/30 07:23:20;;;;;;;5.47;1.70;;;18.90;99.90;;;;;;5054316;28;20467;-70
2023/06/30 07:25:47;;;;;;;6.28;1.70;;;19.00;99.90;;;;;;5050397;28;20029;-71
2023/06/30 07:28:13;;;;;;;4.65;1.20;;;19.10;99.90;;;;;;5054830;28;20434;-70
2023/06/30 07:30:40;;;;;;;6.32;1.55;;;19.00;99.90;;;;;;5054435;28;20048;-71
2023/06/30 07:33:06;;;;;;;4.63;1.40;;;19.00;99.90;;;;;;5054027;28;20037;-71
2023/06/30 07:35:32;;;;;;;4.03;1.08;;;19.00;99.90;;;;;;5054409;28;20107;-71
2023/06/30 07:37:57;;;;;;;7.55;1.35;;;19.00;99.90;;;;;;5054915;28;20041;-71
2023/06/30 07:40:23;;;;;;;8.25;1.60;;;19.10;99.90;;;;;;5050030;28;20044;-70
2023/06/30 07:42:49;;;;;;;4.97;1.27;;;19.10;99.90;;;;;;5051350;28;20044;-71
2023/06/30 07:45:16;;;;;;;5.65;1.20;;;19.00;99.90;;;;;;5052915;28;20064;-71
2023/06/30 07:47:43;;;;;;;4.78;1.40;;;19.10;99.90;;;;;;5054340;28;20037;-71
2023/06/30 07:50:13;;;;;;;4.57;1.38;;;19.20;99.90;;;;;;5054080;28;20033;-71
2023/06/30 07:52:42;;;;;;;4.43;1.13;;;19.30;99.90;;;;;;5054336;28;20033;-71
2023/06/30 07:55:09;;;;;;;4.60;1.35;;;19.50;99.90;;;;;;5053358;28;20151;-71
2023/06/30 07:57:34;;;;;;;3.00;1.17;;;19.60;99.90;;;;;;5050951;28;20037;-71
2023/06/30 08:00:01;;;;;;;5.55;1.45;;;19.60;99.90;;;;;;5053692;28;20052;-71
2023/06/30 08:02:26;;;;;;;7.38;1.40;;;19.50;99.90;;;;;;5051679;28;20457;-71
2023/06/30 08:04:52;;;;;;;5.00;1.85;;;19.50;99.90;;;;;;5048476;28;20041;-71
2023/06/30 08:07:17;;;;;;;5.30;1.40;;;19.60;99.90;;;;;;5053816;28;20047;-71
2023/06/30 08:09:43;;;;;;;4.88;1.10;;;19.80;99.90;;;;;;5053998;28;20033;-70
2023/06/30 08:12:09;;;;;;;3.30;1.35;;;19.90;99.90;;;;;;5054275;28;20033;-71
2023/06/30 08:14:35;;;;;;;3.45;1.50;;;20.10;99.90;;;;;;5052064;28;20037;-71
2023/06/30 08:17:02;;;;;;;7.10;1.35;;;20.40;99.90;;;;;;5050529;28;20037;-71
2023/06/30 08:19:28;;;;;;;3.67;1.25;;;20.50;99.90;;;;;;5050168;28;20033;-71
2023/06/30 08:21:54;;;;;;;6.35;1.50;;;20.70;99.90;;;;;;5053067;28;20116;-71
2023/06/30 08:24:20;;;;;;;4.35;1.20;;;21.00;99.90;;;;;;5053841;28;20045;-70
2023/06/30 08:26:46;;;;;;;7.03;1.30;;;20.90;99.90;;;;;;5054055;28;20056;-71
2023/06/30 08:29:11;;;;;;;3.70;1.20;;;20.80;99.90;;;;;;5054086;28;20041;-70
2023/06/30 08:31:37;;;;;;;4.10;1.17;;;20.50;99.90;;;;;;5051928;28;20052;-70
2023/06/30 08:34:02;;;;;;;5.88;1.15;;;20.50;99.90;;;;;;5052782;28;20044;-70
2023/06/30 08:36:28;;;;;;;4.25;1.30;;;20.70;99.90;;;;;;5054074;28;20091;-70
2023/06/30 08:38:54;;;;;;;6.75;1.40;;;20.90;99.90;;;;;;5051881;28;20037;-70
2023/06/30 08:41:19;;;;;;;4.38;1.80;;;21.00;99.90;;;;;;5047481;28;20036;-70
2023/06/30 08:43:45;;;;;;;5.00;1.20;;;21.10;99.90;;;;;;5053124;28;20072;-70
2023/06/30 08:46:16;;;;;;;4.78;1.20;;;21.20;99.90;;;;;;5051944;28;20111;-70
2023/06/30 08:48:42;;;;;;;2.67;1.08;;;21.20;99.90;;;;;;5053884;28;20467;-69
2023/06/30 08:51:09;;;;;;;3.70;1.10;;;21.00;99.90;;;;;;5053487;28;20139;-70
2023/06/30 08:53:35;;;;;;;2.47;0.93;;;20.90;99.90;;;;;;5034699;28;20041;-69
2023/06/30 08:56:03;;;;;;;2.80;0.90;;;20.90;99.90;;;;;;5053371;28;20040;-70
2023/06/30 08:58:28;;;;;;;4.10;1.17;;;21.00;99.90;;;;;;5053225;28;20041;-70
2023/06/30 09:00:57;;;;;;;4.75;1.30;;;21.30;99.90;;;;;;5051108;28;20032;-69
2023/06/30 09:03:23;;;;;;;3.70;1.35;;;21.50;99.90;;;;;;5052416;28;20037;-69
2023/06/30 09:05:54;;;;;;;4.95;1.60;;;21.60;99.90;;;;;;5053383;28;20040;-69
2023/06/30 09:08:23;;;;;;;2.42;0.93;;;21.60;99.40;;;;;;5051144;28;20048;-69
2023/06/30 09:10:50;;;;;;;2.47;1.08;;;21.70;99.00;;;;;;5052680;28;20076;-69
2023/06/30 09:13:17;;;;;;;4.90;1.30;;;21.90;98.50;;;;;;5040847;28;20499;-69
2023/06/30 09:15:44;;;;;;;3.53;1.10;;;22.10;98.00;;;;;;5053015;28;20041;-69
2023/06/30 09:18:10;;;;;;;4.30;1.25;;;22.20;97.40;;;;;;5052871;28;20041;-70
2023/06/30 09:20:37;;;;;;;7.72;1.40;;;22.40;97.30;;;;;;5052979;28;20064;-70
2023/06/30 09:23:04;;;;;;;1.80;1.00;;;22.50;96.70;;;;;;5052891;28;20048;-70
2023/06/30 09:25:32;;;;;;;2.63;1.15;;;22.40;96.20;;;;;;5028615;28;20082;-70
2023/06/30 09:27:59;;;;;;;2.60;1.00;;;22.50;96.10;;;;;;5049371;28;20518;-70
2023/06/30 09:30:32;;;;;;;4.55;1.45;;;22.50;96.30;;;;;;5052780;28;20048;-70
2023/06/30 09:32:57;;;;;;;3.97;1.00;;;22.40;96.10;;;;;;5052440;28;20072;-70
2023/06/30 09:35:23;;;;;;;2.65;0.88;;;22.50;96.00;;;;;;5052227;28;20077;-70
2023/06/30 09:37:49;;;;;;;3.65;0.70;;;22.60;96.20;;;;;;5052554;28;20619;-70
2023/06/30 09:40:15;;;;;;;2.72;0.90;;;22.70;94.40;;;;;;5043261;28;20029;-70
2023/06/30 09:42:44;;;;;;;3.80;0.80;;;22.70;92.70;;;;;;5051943;28;20087;-70
2023/06/30 09:45:10;;;;;;;3.33;1.10;;;22.80;92.80;;;;;;5052034;28;20041;-70
2023/06/30 09:47:36;;;;;;;4.65;0.93;;;22.90;92.50;;;;;;5052442;28;20056;-70
2023/06/30 09:50:04;;;;;;;3.17;0.90;;;22.90;92.50;;;;;;5051998;28;20041;-70
2023/06/30 09:52:31;;;;;;;3.58;1.15;;;23.00;92.00;;;;;;5052373;28;20076;-70
2023/06/30 09:54:57;;;;;;;2.28;1.20;;;23.10;91.70;;;;;;5050866;28;20032;-70
2023/06/30 09:57:27;;;;;;;3.05;1.23;;;23.10;91.40;;;;;;5050568;28;20047;-70
2023/06/30 09:59:52;;;;;;;2.33;1.00;;;22.80;91.00;;;;;;5033553;28;20044;-70
2023/06/30 10:02:18;;;;;;;1.98;1.10;;;22.60;91.00;;;;;;5052024;28;20395;-70
2023/06/30 10:04:44;;;;;;;3.35;1.00;;;22.50;91.10;;;;;;5051463;28;20155;-70
2023/06/30 10:07:13;;;;;;;2.28;0.70;;;22.50;90.90;;;;;;5048629;28;20380;-70
2023/06/30 10:09:42;;;;;;;2.47;1.10;;;22.30;90.00;;;;;;5028705;28;20605;-70
2023/06/30 10:12:09;;;;;;;2.70;0.95;;;22.10;89.40;;;;;;5052014;28;20037;-70
2023/06/30 10:14:37;;;;;;;1.98;0.80;;;22.40;89.10;;;;;;5046005;28;20068;-70
2023/06/30 10:17:05;;;;;;;3.25;1.10;;;22.60;88.70;;;;;;5051889;28;20036;-70
2023/06/30 10:19:32;;;;;;;2.65;1.10;;;22.80;87.70;;;;;;5051861;28;20098;-70
2023/06/30 10:21:58;;;;;;;2.40;1.00;;;23.00;86.80;;;;;;5049588;28;20519;-70
2023/06/30 10:24:26;;;;;;;3.45;1.48;;;23.20;85.60;;;;;;5051426;28;20028;-70
2023/06/30 10:26:54;;;;;;;2.60;1.08;;;23.40;84.50;;;;;;5051763;28;20479;-70
2023/06/30 10:29:20;;;;;;;1.98;0.98;;;23.60;83.70;;;;;;5051625;28;20621;-70
2023/06/30 10:31:47;;;;;;;2.45;1.10;;;23.40;84.10;;;;;;5043944;28;20486;-70
2023/06/30 10:34:13;;;;;;;2.97;0.80;;;23.40;84.20;;;;;;5051350;28;20041;-70
2023/06/30 10:36:39;;;;;;;3.15;0.90;;;23.40;83.90;;;;;;5050022;28;20037;-70
2023/06/30 10:39:06;;;;;;;2.55;0.90;;;23.50;83.10;;;;;;5050730;28;20037;-70
2023/06/30 10:41:45;;;;;;;2.42;0.95;;;23.60;81.30;;;;;;5063567;22;20043;-64
2023/06/30 10:44:11;;;;;;;4.35;1.02;;;23.70;78.40;;;;;;5049289;28;20490;-64
2023/06/30 10:46:47;;;;;;;3.17;1.00;;;23.50;79.20;;;;;;5048201;28;20033;-64
2023/06/30 10:49:17;;;;;;;3.15;1.10;;;23.30;80.00;;;;;;5041906;28;20158;-64
2023/06/30 10:51:49;;;;;;;3.72;1.00;;;23.00;81.20;;;;;;5042772;28;20043;-64
2023/06/30 10:54:23;;;;;;;4.30;1.10;;;22.90;82.40;;;;;;5050214;28;20040;-64
2023/06/30 10:57:04;;;;;;;7.20;1.27;;;22.70;82.80;;;;;;5051327;28;20047;-64
2023/06/30 10:59:36;;;;;;;4.25;1.00;;;22.60;83.20;;;;;;5051062;28;20483;-64
2023/06/30 11:02:13;;;;;;;5.13;1.10;;;22.40;81.30;;;;;;5051676;28;20049;-64
2023/06/30 11:04:40;;;;;;;2.22;1.00;;;22.30;79.60;;;;;;5043506;28;20037;-64
2023/06/30 11:07:07;;;;;;;1.80;0.90;;;22.10;79.80;;;;;;5055266;28;20044;-64
2023/06/30 11:09:48;;;;;;;2.45;1.02;;;22.20;80.20;;;;;;5031263;28;20052;-65
2023/06/30 11:12:21;;;;;;;;;;;22.20;80.30;;;;;;5033203;28;20045;-65
2023/06/30 11:14:56;;;;;;;3.53;1.05;;;22.10;81.30;;;;;;5051144;28;19920;-65
2023/06/30 11:17:26;;;;;;;4.30;1.25;;;22.10;82.50;;;;;;5051089;28;20048;-64
2023/06/30 11:20:09;;;;;;;6.88;1.17;;;22.20;83.40;;;;;;5050494;28;20592;-64
2023/06/30 11:22:35;;;;;;;2.92;1.10;;;22.50;84.50;;;;;;5043042;28;20052;-65
2023/06/30 11:25:13;;;;;;;1.85;0.98;;;22.70;83.60;;;;;;5051175;28;20037;-65
2023/06/30 11:27:39;;;;;;;3.00;1.20;;;23.10;81.90;;;;;;5033029;28;20037;-64
2023/06/30 11:30:07;;;;;;;2.30;1.20;;;23.20;80.00;;;;;;5049799;28;20048;-65
2023/06/30 11:32:36;;;;;;;4.03;1.10;;;23.40;79.60;;;;;;5049305;28;20037;-64
2023/06/30 11:35:05;;;;;;;5.25;1.30;;;23.50;79.70;;;;;;5046128;28;20045;-65
2023/06/30 11:37:35;;;;;;;5.60;1.40;;;23.50;80.00;;;;;;5039664;28;20103;-64
2023/06/30 11:40:01;;;;;;;5.30;1.05;;;23.40;78.00;;;;;;5049083;28;20574;-65
2023/06/30 11:42:26;;;;;;;2.28;1.10;;;23.40;76.80;;;;;;5051073;28;20123;-64
2023/06/30 11:44:52;;;;;;;2.20;1.13;;;23.40;75.70;;;;;;5049377;28;20044;-64
2023/06/30 11:47:19;;;;;;;3.40;1.00;;;23.60;74.80;;;;;;5051232;28;20032;-64
2023/06/30 11:49:48;;;;;;;2.47;1.33;;;23.80;74.90;;;;;;5050329;28;20041;-64
2023/06/30 11:52:15;;;;;;;2.33;0.90;;;24.00;74.40;;;;;;5045959;28;20044;-64
2023/06/30 11:54:41;;;;;;;6.95;1.30;;;24.20;74.70;;;;;;5045440;28;20037;-65
2023/06/30 11:57:08;;;;;;;4.65;1.35;;;24.30;73.80;;;;;;5055096;28;20048;-64
2023/06/30 11:59:34;;;;;;;3.83;1.20;;;24.40;73.00;;;;;;5059596;28;20119;-64
2023/06/30 12:02:00;;;;;;;6.47;1.50;;;24.40;72.00;;;;;;5035977;28;20101;-65
2023/06/30 12:04:26;;;;;;;3.03;1.20;;;24.40;71.20;;;;;;5033025;28;20120;-64
2023/06/30 12:06:55;;;;;;;2.63;1.00;;;24.40;71.60;;;;;;5048709;28;20041;-65
2023/06/30 12:09:22;;;;;;;3.45;1.20;;;24.40;69.10;;;;;;5044061;28;20099;-65
2023/06/30 12:11:49;;;;;;;3.35;1.08;;;24.50;69.40;;;;;;5053887;28;20036;-65
2023/06/30 12:14:16;;;;;;;2.17;1.05;;;24.60;69.40;;;;;;5032993;28;20041;-65
2023/06/30 12:16:43;;;;;;;3.20;1.10;;;24.50;68.80;;;;;;5034419;28;20029;-65
2023/06/30 12:19:09;;;;;;;3.45;1.17;;;24.30;68.80;;;;;;5034274;28;20532;-65
2023/06/30 12:21:35;;;;;;;2.05;1.05;;;24.10;69.40;;;;;;5050233;28;20388;-65
2023/06/30 12:24:04;;;;;;;3.47;1.40;;;24.00;70.20;;;;;;5049353;28;20594;-65
2023/06/30 12:26:30;;;;;;;2.47;1.25;;;23.90;70.00;;;;;;5039238;28;20395;-65
2023/06/30 12:29:03;;;;;;;4.35;1.40;;;23.80;69.90;;;;;;5045731;28;20051;-65
2023/06/30 12:31:34;;;;;;;3.55;1.40;;;23.80;70.30;;;;;;5053431;28;20047;-65
2023/06/30 12:33:59;;;;;;;4.45;1.33;;;23.80;70.80;;;;;;5052078;28;20033;-65
2023/06/30 12:36:29;;;;;;;3.97;1.23;;;23.80;71.10;;;;;;5050778;28;20052;-65
2023/06/30 12:38:55;;;;;;;3.50;1.50;;;23.80;70.20;;;;;;5050912;28;20051;-64
2023/06/30 12:41:21;;;;;;;3.78;1.55;;;23.60;69.60;;;;;;5052805;28;20136;-64
2023/06/30 12:43:48;;;;;;;5.18;1.42;;;23.50;69.80;;;;;;5051553;28;20083;-64
2023/06/30 12:46:14;;;;;;;4.10;2.03;;;23.30;70.20;;;;;;5051566;28;20060;-65